Latest  Newer  Older  Last 2 hours slideshow  Last 24 hours slideshow  Refresh every 5 minutes 
Current image  Latest image  Rain/snow radar  Cloud coverage sat images 

All time is UTC (add 2 hours to UTC in wintertime, 3 hours to UTC in DST for Latvia local time)

2021/01/28 05:50 EVRA 280550Z 24003KT 200V270 9999 OVC026 M01/M03 Q1005 R18/390195 NOSIG
2021/01/28 05:50 EVLA 280550Z AUTO 12007KT 3600 -SN OVC006/// M01/M01 Q1003
2021/01/28 05:50 EVVA 280550Z AUTO 14006KT 9999 OVC039 M00/M01 Q1003
2021/01/28 05:50 EYKA 280550Z VRB01KT 9999 OVC023 M02/M06 Q1006 R08/290095
2021/01/28 05:50 EYPA 280550Z 18006KT 9999 OVC032 01/M01 Q1004
2021/01/28 05:50 EYSA 280550Z 13005KT 9999 BKN019 BKN022 OVC049 M03/M05 Q1005 R14L/29//95 R14R/29//95 WHT NOSIG
2021/01/28 05:50 EYVI 280550Z 30005KT 9999 OVC020 M03/M05 Q1005 R01/5/0294 NOSIG
2021/01/28 05:50 EEKA 280550Z 20002KT 150V230 9999 OVC023 M02/M03 Q1003
2021/01/28 05:50 EEKE 280550Z 00000KT 9999 OVC028 M01/M04 Q1004 R17/190095

2021/01/28 05:50 EETN 280550Z 31006KT 9999 SCT016 SCT030 M01/M04 Q1003 R08/810295 NOSIG
2021/01/28 05:50 EETU 280550Z AUTO 28007KT 9999 SG OVC009/// M01/M03 Q1003
   RIGA AIRPORT     EVRA               56 55N  023 58E   10   X     T          6 LV
   LIEPAJA INTL     EVLA        26406  56 31N  021 06E    4   X                8 LV
   VENTPILS         EVVA               57 21N  021 33E    6   X                8 LV
   KAUNAS           EYKA               54 54N  023 55E   77   X     T          6 LT
   PALANGA INTL     EYPA               55 55N  021 03E   10   X                6 LT
   SIAULIAI INTL    EYSA               55 54N  023 24E  135   X     T          6 LT
   VILNIUS INTL     EYVI        26730  54 38N  025 17E  197   X     T          6 LT
   KARDLA           EEKA        26116  58 59N  022 50E    4   X                8 EE
   KURESSAARE       EEKE               58 14N  022 31E    4   X                8 EE
   PARNU            EEPU               58 25N  024 28E   14   X                8 EE
   TALLINN          EETN        26038  59 24N  024 49E   40   X     T          8 EE
   TARTU            EETU               58 19N  026 41E   67   X                8 EE